Time;durP1;ratioP1;P1;durP2;ratioP2;P2;SDS_P1;SDS_P2;PMS_P1;PMS_P2;Temp;Humidity;BMP_temperature;BMP_pressure;BME280_temperature;BME280_humidity;BME280_pressure;Samples;Min_cycle;Max_cycle;Signal;HPM_P1;HPM_P2
2021/04/18 00:00:29;;;;;;;19.00;8.48;;;5.80;92.70;;;;;;5117474;28;20122;-72
2021/04/18 00:02:55;;;;;;;15.65;8.27;;;5.80;92.70;;;;;;5117758;28;20115;-72
2021/04/18 00:05:23;;;;;;;13.57;7.55;;;5.80;92.70;;;;;;5116988;28;20042;-72
2021/04/18 00:07:50;;;;;;;13.07;7.53;;;5.80;92.60;;;;;;5116886;28;20067;-72
2021/04/18 00:10:16;;;;;;;16.98;7.85;;;5.70;92.50;;;;;;5117434;28;20032;-72
2021/04/18 00:12:42;;;;;;;18.30;8.68;;;5.70;92.90;;;;;;5116885;28;20047;-72
2021/04/18 00:15:11;;;;;;;15.13;9.07;;;5.80;92.60;;;;;;5116498;28;20035;-72
2021/04/18 00:17:37;;;;;;;21.00;10.10;;;5.80;92.60;;;;;;5116938;28;20162;-72
2021/04/18 00:20:10;;;;;;;14.50;8.65;;;5.70;92.60;;;;;;5117557;28;20067;-72
2021/04/18 00:22:37;;;;;;;;;;;5.80;92.70;;;;;;5117524;28;20498;-72
2021/04/18 00:25:06;;;;;;;14.18;7.70;;;5.80;93.10;;;;;;5116284;28;19917;-72
2021/04/18 00:27:32;;;;;;;19.40;9.68;;;5.70;92.60;;;;;;5116687;28;20039;-72
2021/04/18 00:29:58;;;;;;;19.38;9.10;;;5.70;92.60;;;;;;5117170;28;20085;-72
2021/04/18 00:32:24;;;;;;;18.27;9.43;;;5.70;92.70;;;;;;5117218;27;20066;-72
2021/04/18 00:34:50;;;;;;;21.90;10.02;;;5.70;92.80;;;;;;5116094;28;20502;-72
2021/04/18 00:37:15;;;;;;;13.20;8.00;;;5.70;92.90;;;;;;5116321;28;20036;-72
2021/04/18 00:39:41;;;;;;;18.35;7.93;;;5.70;92.90;;;;;;5116284;28;20039;-72
2021/04/18 00:42:07;;;;;;;14.13;8.70;;;5.60;92.90;;;;;;5116495;28;20031;-72
2021/04/18 00:44:32;;;;;;;18.45;9.10;;;5.70;93.00;;;;;;5115131;28;20063;-72
2021/04/18 00:46:59;;;;;;;22.00;9.57;;;5.60;93.00;;;;;;5116347;28;20048;-72
2021/04/18 00:49:24;;;;;;;21.02;10.02;;;5.60;93.40;;;;;;5115025;28;20031;-72
2021/04/18 00:51:50;;;;;;;18.67;8.85;;;5.60;93.30;;;;;;5116574;28;20043;-72
2021/04/18 00:54:16;;;;;;;21.80;9.82;;;5.60;93.20;;;;;;5116185;28;20031;-72
2021/04/18 00:56:41;;;;;;;20.00;9.25;;;5.60;93.30;;;;;;5115896;28;20043;-72
2021/04/18 00:59:07;;;;;;;18.60;10.80;;;5.60;93.30;;;;;;5116116;28;20071;-72
2021/04/18 01:01:33;;;;;;;17.75;9.70;;;5.60;93.30;;;;;;5115949;28;20510;-72
2021/04/18 01:03:59;;;;;;;16.48;9.25;;;5.60;93.50;;;;;;5116057;28;20039;-71
2021/04/18 01:06:24;;;;;;;17.95;8.63;;;5.60;93.40;;;;;;5115376;27;20032;-72
2021/04/18 01:08:50;;;;;;;16.90;9.80;;;5.60;93.40;;;;;;5116580;28;20036;-72
2021/04/18 01:11:16;;;;;;;16.73;8.77;;;5.60;93.40;;;;;;5116083;28;20039;-72
2021/04/18 01:13:42;;;;;;;22.40;10.60;;;5.60;93.50;;;;;;5115817;28;20380;-72
2021/04/18 01:16:07;;;;;;;17.15;9.10;;;5.60;93.50;;;;;;5115517;28;20032;-72
2021/04/18 01:18:33;;;;;;;22.58;10.30;;;5.60;93.60;;;;;;5116207;28;20448;-72
2021/04/18 01:21:07;;;;;;;15.27;9.85;;;5.60;93.70;;;;;;5115563;28;20032;-72
2021/04/18 01:23:33;;;;;;;16.15;10.30;;;5.60;93.60;;;;;;5115857;28;20071;-72
2021/04/18 01:25:59;;;;;;;17.05;10.43;;;5.60;93.60;;;;;;5115093;28;20047;-72
2021/04/18 01:28:24;;;;;;;18.58;10.50;;;5.60;93.70;;;;;;5115958;28;20054;-72
2021/04/18 01:30:50;;;;;;;21.35;9.98;;;5.60;93.80;;;;;;5116224;28;20074;-72
2021/04/18 01:33:19;;;;;;;20.30;9.63;;;5.60;93.70;;;;;;5116139;28;20036;-72
2021/04/18 01:35:47;;;;;;;16.63;8.73;;;5.60;93.70;;;;;;5115250;28;20036;-72
2021/04/18 01:38:16;;;;;;;17.55;10.02;;;5.60;93.60;;;;;;5115456;28;20483;-72
2021/04/18 01:40:43;;;;;;;17.42;9.63;;;5.60;93.60;;;;;;5115937;28;20035;-72
2021/04/18 01:43:16;;;;;;;19.63;9.73;;;5.60;93.50;;;;;;5115216;28;20140;-72
2021/04/18 01:45:43;;;;;;;20.40;10.77;;;5.50;93.60;;;;;;5114751;28;20376;-72
2021/04/18 01:48:10;;;;;;;19.63;9.82;;;5.60;93.70;;;;;;5115295;28;20044;-72
2021/04/18 01:50:45;;;;;;;18.50;9.13;;;5.60;93.70;;;;;;5115093;28;20088;-72
2021/04/18 01:53:11;;;;;;;18.70;8.77;;;5.50;93.60;;;;;;5115013;28;20043;-72
2021/04/18 01:55:38;;;;;;;21.58;9.65;;;5.50;93.60;;;;;;5114021;28;20441;-72
2021/04/18 01:58:05;;;;;;;24.95;11.20;;;5.50;93.70;;;;;;5114905;28;20468;-72
2021/04/18 02:00:31;;;;;;;17.85;10.00;;;5.40;93.80;;;;;;5114629;28;20100;-72
2021/04/18 02:02:58;;;;;;;16.08;8.90;;;5.40;94.00;;;;;;5115120;28;20057;-72
2021/04/18 02:05:24;;;;;;;14.05;9.15;;;5.40;93.70;;;;;;5114412;28;20036;-72
2021/04/18 02:07:49;;;;;;;16.05;8.98;;;5.40;93.60;;;;;;5114568;28;20468;-72
2021/04/18 02:10:16;;;;;;;18.33;9.48;;;5.40;93.70;;;;;;5114467;28;20041;-72
2021/04/18 02:12:44;;;;;;;18.50;9.05;;;5.40;93.70;;;;;;5113463;28;20040;-72
2021/04/18 02:15:11;;;;;;;21.98;9.70;;;5.30;93.80;;;;;;5114202;28;20487;-72
2021/04/18 02:17:38;;;;;;;17.67;10.00;;;5.30;93.90;;;;;;5114387;28;20063;-72
2021/04/18 02:20:05;;;;;;;16.15;9.98;;;5.30;94.20;;;;;;5114336;28;20036;-72
2021/04/18 02:22:31;;;;;;;13.98;8.85;;;5.20;94.00;;;;;;5114514;28;20043;-72
2021/04/18 02:24:57;;;;;;;17.23;9.63;;;5.30;94.10;;;;;;5114862;28;20080;-72
2021/04/18 02:27:25;;;;;;;14.90;9.57;;;5.30;94.00;;;;;;5114232;28;20042;-72
2021/04/18 02:29:51;;;;;;;18.92;10.70;;;5.30;93.90;;;;;;5114316;28;20039;-72
2021/04/18 02:32:17;;;;;;;20.30;10.93;;;5.30;93.90;;;;;;5114328;28;20047;-72
2021/04/18 02:34:42;;;;;;;15.98;8.73;;;5.20;94.10;;;;;;5114390;28;20039;-72
2021/04/18 02:37:08;;;;;;;17.30;10.25;;;5.20;94.10;;;;;;5114275;28;20140;-72
2021/04/18 02:39:34;;;;;;;16.35;10.02;;;5.20;94.00;;;;;;5114710;28;20081;-72
2021/04/18 02:41:59;;;;;;;17.23;9.35;;;5.20;93.90;;;;;;5114105;28;20372;-72
2021/04/18 02:44:25;;;;;;;15.38;9.05;;;5.20;94.00;;;;;;5113744;28;20086;-72
2021/04/18 02:46:51;;;;;;;15.63;9.95;;;5.10;93.90;;;;;;5113855;28;20399;-72
2021/04/18 02:49:17;;;;;;;17.20;9.88;;;5.20;94.00;;;;;;5114049;28;20130;-72
2021/04/18 02:51:43;;;;;;;14.80;9.45;;;5.10;93.90;;;;;;5114657;28;20074;-72
2021/04/18 02:54:09;;;;;;;18.40;9.68;;;5.10;94.10;;;;;;5114201;28;20035;-72
2021/04/18 02:56:35;;;;;;;20.23;11.32;;;5.00;94.20;;;;;;5112544;28;20100;-72
2021/04/18 02:59:01;;;;;;;21.33;11.38;;;4.90;94.60;;;;;;5113806;28;20467;-72
2021/04/18 03:01:27;;;;;;;21.63;11.25;;;4.80;95.10;;;;;;5113916;28;20040;-72
2021/04/18 03:03:52;;;;;;;19.95;9.93;;;4.80;95.20;;;;;;5114281;28;20039;-72
2021/04/18 03:06:18;;;;;;;18.27;11.48;;;4.80;95.10;;;;;;5113484;28;20035;-72
2021/04/18 03:08:44;;;;;;;21.50;11.63;;;4.80;95.40;;;;;;5113830;28;20472;-72
2021/04/18 03:11:11;;;;;;;39.50;15.18;;;4.80;95.30;;;;;;5112777;28;20043;-72
2021/04/18 03:13:37;;;;;;;49.35;15.70;;;4.80;95.40;;;;;;5113976;28;20115;-72
2021/04/18 03:16:03;;;;;;;60.40;14.68;;;4.80;95.60;;;;;;5113569;28;20186;-72
2021/04/18 03:18:28;;;;;;;26.27;11.60;;;4.70;95.50;;;;;;5113946;28;20471;-72
2021/04/18 03:20:54;;;;;;;14.90;10.30;;;4.70;95.70;;;;;;5112213;28;20043;-72
2021/04/18 03:23:20;;;;;;;17.85;10.50;;;4.80;95.60;;;;;;5113801;28;20071;-72
2021/04/18 03:25:45;;;;;;;16.17;10.20;;;4.80;95.50;;;;;;5113332;28;20035;-72
2021/04/18 03:28:11;;;;;;;15.82;10.13;;;4.90;95.30;;;;;;5113859;28;20032;-72
2021/04/18 03:30:37;;;;;;;14.23;9.77;;;4.90;95.20;;;;;;5113529;28;20044;-72
2021/04/18 03:33:03;;;;;;;17.65;9.80;;;4.90;95.00;;;;;;5113693;28;20054;-72
2021/04/18 03:35:28;;;;;;;12.10;8.57;;;4.90;94.90;;;;;;5113552;28;20573;-71
2021/04/18 03:37:54;;;;;;;14.32;8.98;;;4.90;94.80;;;;;;5114021;28;20042;-72
2021/04/18 03:40:20;;;;;;;12.55;9.30;;;4.80;95.10;;;;;;5113309;28;20035;-71
2021/04/18 03:42:48;;;;;;;11.15;8.02;;;4.80;94.70;;;;;;5113456;28;20395;-72
2021/04/18 03:45:14;;;;;;;13.05;9.85;;;4.80;94.80;;;;;;5113203;28;20058;-71
2021/04/18 03:47:41;;;;;;;13.63;8.68;;;4.90;94.70;;;;;;5113817;28;20092;-72
2021/04/18 03:50:09;;;;;;;13.32;9.52;;;4.90;94.60;;;;;;5113463;28;20048;-71
2021/04/18 03:52:34;;;;;;;11.05;8.35;;;4.80;94.50;;;;;;5112152;28;20097;-71
2021/04/18 03:55:00;;;;;;;13.65;8.68;;;4.80;94.40;;;;;;5113136;28;20039;-71
2021/04/18 03:57:25;;;;;;;13.80;9.00;;;4.80;94.40;;;;;;5113381;28;20036;-71
2021/04/18 03:59:51;;;;;;;14.25;9.10;;;4.80;94.40;;;;;;5113273;28;20036;-71
2021/04/18 04:02:17;;;;;;;11.40;7.95;;;4.70;94.30;;;;;;5113359;28;20041;-72
2021/04/18 04:04:42;;;;;;;10.98;8.25;;;4.70;94.30;;;;;;5112928;28;20472;-71
2021/04/18 04:07:08;;;;;;;10.77;8.07;;;4.60;94.50;;;;;;5113019;28;20092;-72
2021/04/18 04:09:35;;;;;;;9.75;7.43;;;4.60;94.40;;;;;;5113692;28;20042;-71
2021/04/18 04:12:00;;;;;;;9.90;7.20;;;4.70;94.50;;;;;;5113170;28;20075;-72
2021/04/18 04:14:26;;;;;;;7.65;6.25;;;4.60;94.30;;;;;;5113270;28;20475;-72
2021/04/18 04:16:52;;;;;;;9.23;7.20;;;4.70;94.40;;;;;;5113130;28;20039;-71
2021/04/18 04:19:17;;;;;;;9.70;7.15;;;4.60;94.40;;;;;;5117366;28;20490;-72
2021/04/18 04:21:43;;;;;;;8.10;6.70;;;4.60;94.40;;;;;;5116871;28;20044;-71
2021/04/18 04:24:09;;;;;;;10.18;7.82;;;4.60;94.20;;;;;;5116836;28;20100;-71
2021/04/18 04:26:34;;;;;;;9.30;7.45;;;4.60;94.30;;;;;;5116592;28;20039;-72
2021/04/18 04:29:01;;;;;;;9.43;7.25;;;4.50;94.20;;;;;;5117047;28;20433;-72
2021/04/18 04:31:26;;;;;;;14.23;9.30;;;4.50;94.70;;;;;;5117113;28;20122;-71
2021/04/18 04:33:52;;;;;;;10.77;8.50;;;4.40;94.80;;;;;;5116387;27;20475;-71
2021/04/18 04:36:19;;;;;;;11.77;8.98;;;4.40;95.00;;;;;;5116092;28;20522;-71
2021/04/18 04:38:44;;;;;;;12.93;9.52;;;4.40;95.00;;;;;;5116773;28;20483;-71
2021/04/18 04:41:10;;;;;;;16.55;10.60;;;4.50;95.10;;;;;;5116479;28;20035;-72
2021/04/18 04:43:36;;;;;;;12.60;9.15;;;4.40;95.10;;;;;;5116763;28;20042;-72
2021/04/18 04:46:02;;;;;;;12.85;9.63;;;4.50;95.00;;;;;;5115825;27;20491;-72
2021/04/18 04:48:28;;;;;;;13.63;9.77;;;4.50;95.00;;;;;;5116230;28;20100;-71
2021/04/18 04:50:54;;;;;;;14.65;9.05;;;4.60;94.90;;;;;;5116113;28;20059;-71
2021/04/18 04:53:20;;;;;;;15.70;10.27;;;4.70;94.80;;;;;;5116347;28;20035;-71
2021/04/18 04:55:47;;;;;;;13.18;8.98;;;4.70;94.80;;;;;;5116179;28;20032;-71
2021/04/18 04:58:14;;;;;;;14.38;9.48;;;4.70;94.70;;;;;;5116268;28;20047;-71
2021/04/18 05:00:40;;;;;;;14.95;9.90;;;4.70;94.80;;;;;;5116500;28;20122;-71
2021/04/18 05:03:06;;;;;;;16.40;10.98;;;4.80;94.80;;;;;;5116563;28;20115;-71
2021/04/18 05:05:32;;;;;;;15.65;10.88;;;4.90;94.80;;;;;;5115842;28;20031;-72
2021/04/18 05:07:57;;;;;;;15.50;10.57;;;4.90;94.70;;;;;;5115998;28;20035;-71
2021/04/18 05:10:24;;;;;;;15.48;10.45;;;4.90;94.70;;;;;;5115770;28;20055;-72
2021/04/18 05:12:49;;;;;;;20.67;13.20;;;5.00;94.70;;;;;;5115874;28;20124;-71
2021/04/18 05:15:15;;;;;;;20.80;14.18;;;4.90;94.80;;;;;;5114208;28;20112;-71
2021/04/18 05:17:41;;;;;;;29.70;18.70;;;4.90;95.10;;;;;;5116203;28;20429;-72
2021/04/18 05:20:07;;;;;;;21.77;16.08;;;4.90;94.90;;;;;;5116283;28;20104;-71
2021/04/18 05:22:33;;;;;;;22.85;14.10;;;4.90;95.00;;;;;;5115512;28;20483;-72
2021/04/18 05:24:59;;;;;;;20.08;13.30;;;4.90;95.10;;;;;;5115234;28;20035;-71
2021/04/18 05:27:25;;;;;;;24.80;16.15;;;5.00;95.40;;;;;;5115703;28;20070;-71
2021/04/18 05:29:52;;;;;;;25.52;17.20;;;4.90;95.20;;;;;;5115523;28;20495;-71
2021/04/18 05:32:18;;;;;;;25.52;15.95;;;5.00;95.50;;;;;;5115962;28;20537;-71
2021/04/18 05:34:44;;;;;;;23.30;16.30;;;5.10;95.60;;;;;;5115017;28;20086;-71
2021/04/18 05:37:09;;;;;;;25.40;15.85;;;5.20;95.40;;;;;;5115339;28;20531;-71
2021/04/18 05:39:36;;;;;;;20.77;13.70;;;5.20;95.60;;;;;;5115464;28;20044;-71
2021/04/18 05:42:02;;;;;;;22.48;14.95;;;5.40;95.40;;;;;;5115145;28;20066;-71
2021/04/18 05:44:28;;;;;;;23.58;16.00;;;5.50;95.30;;;;;;5115321;28;20040;-71
2021/04/18 05:46:54;;;;;;;24.63;16.02;;;5.60;95.40;;;;;;5115015;28;20075;-71
2021/04/18 05:49:20;;;;;;;22.25;16.38;;;5.60;95.20;;;;;;5114997;28;20046;-71
2021/04/18 05:51:46;;;;;;;24.80;15.30;;;5.60;95.10;;;;;;5114986;28;20502;-71
2021/04/18 05:54:11;;;;;;;26.48;16.25;;;5.70;95.00;;;;;;5115442;28;20032;-71
2021/04/18 05:56:37;;;;;;;25.70;17.27;;;5.80;95.00;;;;;;5114542;28;20036;-70
2021/04/18 05:59:03;;;;;;;25.10;16.90;;;6.00;95.00;;;;;;5114939;28;20031;-70
2021/04/18 06:01:29;;;;;;;30.50;20.05;;;6.10;94.90;;;;;;5115387;28;20040;-70
2021/04/18 06:03:55;;;;;;;32.00;20.67;;;6.50;95.10;;;;;;5114814;28;20119;-70
2021/04/18 06:06:22;;;;;;;29.65;19.90;;;6.90;95.00;;;;;;5113150;28;20036;-70
2021/04/18 06:08:48;;;;;;;31.35;21.20;;;6.90;94.60;;;;;;5114753;28;20039;-70
2021/04/18 06:11:14;;;;;;;33.10;20.80;;;7.20;94.50;;;;;;5114578;28;20032;-70
2021/04/18 06:13:39;;;;;;;29.08;18.05;;;7.40;94.30;;;;;;5115140;28;20031;-70
2021/04/18 06:16:06;;;;;;;23.38;15.93;;;7.50;94.20;;;;;;5114333;28;20111;-70
2021/04/18 06:18:32;;;;;;;20.75;16.35;;;7.30;94.00;;;;;;5115028;28;20032;-70
2021/04/18 06:20:57;;;;;;;21.95;14.05;;;7.40;94.10;;;;;;5114662;28;20105;-70
2021/04/18 06:23:23;;;;;;;22.42;14.93;;;7.40;93.90;;;;;;5114328;28;20048;-70
2021/04/18 06:25:49;;;;;;;29.15;19.60;;;7.60;94.20;;;;;;5114077;28;20039;-70
2021/04/18 06:28:16;;;;;;;23.08;15.90;;;7.90;94.10;;;;;;5115056;28;20031;-70
2021/04/18 06:30:42;;;;;;;26.25;16.40;;;7.90;93.80;;;;;;5113721;28;20036;-70
2021/04/18 06:33:08;;;;;;;25.45;16.50;;;7.70;93.80;;;;;;5114208;28;20039;-70
2021/04/18 06:35:33;;;;;;;32.90;16.17;;;7.70;93.80;;;;;;5113815;28;20399;-70
2021/04/18 06:37:59;;;;;;;24.25;16.35;;;7.70;93.70;;;;;;5114098;28;20043;-70
2021/04/18 06:40:25;;;;;;;25.92;17.15;;;7.70;93.80;;;;;;5114016;28;20039;-70
2021/04/18 06:42:54;;;;;;;27.35;16.08;;;7.70;93.80;;;;;;5114108;28;20043;-71
2021/04/18 06:45:20;;;;;;;33.10;17.13;;;7.70;93.80;;;;;;5113723;28;20039;-71
2021/04/18 06:47:49;;;;;;;29.00;17.38;;;7.80;93.80;;;;;;5114034;28;20040;-71
2021/04/18 06:50:15;;;;;;;26.67;17.02;;;7.90;93.90;;;;;;5114359;28;20108;-71
2021/04/18 06:52:41;;;;;;;25.02;16.52;;;8.10;93.60;;;;;;5114033;28;20043;-72
2021/04/18 06:55:08;;;;;;;25.38;16.05;;;8.30;93.40;;;;;;5113716;28;20086;-71
2021/04/18 06:57:34;;;;;;;30.20;15.30;;;8.50;93.40;;;;;;5114591;28;20039;-71
2021/04/18 07:00:02;;;;;;;27.95;16.13;;;8.70;92.80;;;;;;5113694;28;20044;-71
2021/04/18 07:02:31;;;;;;;23.05;14.30;;;8.70;92.50;;;;;;5113842;28;20042;-71
2021/04/18 07:05:03;;;;;;;21.85;13.45;;;8.70;92.30;;;;;;5113580;28;20038;-71
2021/04/18 07:07:30;;;;;;;24.40;15.05;;;8.60;92.20;;;;;;5113686;28;20046;-71
2021/04/18 07:09:57;;;;;;;23.75;14.23;;;8.50;92.20;;;;;;5114469;28;20043;-71
2021/04/18 07:12:31;;;;;;;23.92;14.98;;;8.50;92.40;;;;;;5113645;28;20035;-71
2021/04/18 07:14:58;;;;;;;21.98;14.25;;;8.50;92.40;;;;;;5112578;28;20040;-71
2021/04/18 07:17:24;;;;;;;22.67;13.70;;;8.50;92.50;;;;;;5113699;28;20056;-71
2021/04/18 07:20:10;;;;;;;21.10;13.20;;;8.50;92.40;;;;;;5113782;28;20050;-71
2021/04/18 07:22:36;;;;;;;24.40;11.93;;;8.40;92.20;;;;;;5114078;28;20380;-71
2021/04/18 07:25:04;;;;;;;29.17;14.18;;;8.40;92.20;;;;;;5113938;28;20034;-72
2021/04/18 07:27:53;;;;;;;23.40;14.45;;;8.50;92.40;;;;;;5114081;28;20070;-71
2021/04/18 07:30:24;;;;;;;23.23;13.05;;;8.50;92.40;;;;;;5114242;28;20040;-71
2021/04/18 07:33:03;;;;;;;24.88;14.43;;;8.60;92.30;;;;;;5113874;28;20421;-70
2021/04/18 07:35:37;;;;;;;27.50;13.80;;;8.70;92.20;;;;;;5113134;28;20035;-70
2021/04/18 07:38:13;;;;;;;27.88;14.50;;;8.80;92.20;;;;;;5113613;28;20040;-70
2021/04/18 07:40:39;;;;;;;21.45;13.43;;;8.80;92.00;;;;;;5113355;28;20093;-70
2021/04/18 07:43:07;;;;;;;23.77;13.80;;;8.90;92.00;;;;;;5113767;28;20035;-70
2021/04/18 07:45:33;;;;;;;22.10;14.35;;;8.90;92.10;;;;;;5112100;28;20036;-70
2021/04/18 07:48:00;;;;;;;22.27;13.60;;;9.00;92.00;;;;;;5113105;28;20038;-70
2021/04/18 07:50:26;;;;;;;24.00;14.13;;;9.10;91.90;;;;;;5112908;27;20036;-70
2021/04/18 07:52:55;;;;;;;26.02;14.68;;;9.20;91.80;;;;;;5115252;28;20032;-71
2021/04/18 07:55:21;;;;;;;23.33;14.07;;;9.30;91.80;;;;;;5117093;28;20440;-73
2021/04/18 07:57:46;;;;;;;23.17;14.70;;;9.30;91.80;;;;;;5115929;28;20077;-72
2021/04/18 08:00:14;;;;;;;24.55;14.40;;;9.80;91.80;;;;;;5116552;28;20422;-71
2021/04/18 08:02:41;;;;;;;23.27;13.18;;;10.00;91.20;;;;;;5117015;28;20046;-71
2021/04/18 08:05:10;;;;;;;21.88;13.38;;;10.50;90.80;;;;;;5116718;28;20038;-72
2021/04/18 08:08:07;;;;;;;20.17;11.73;;;11.00;90.40;;;;;;5117263;28;20032;-72
2021/04/18 08:10:47;;;;;;;18.10;11.02;;;11.50;87.10;;;;;;5116613;28;20056;-72
2021/04/18 08:13:24;;;;;;;16.45;11.00;;;11.40;85.80;;;;;;5115913;28;20433;-72
2021/04/18 08:15:54;;;;;;;21.27;11.38;;;11.80;84.20;;;;;;5116524;28;20067;-72
2021/04/18 08:18:31;;;;;;;14.15;10.13;;;12.10;83.20;;;;;;5117305;28;20039;-72
2021/04/18 08:20:58;;;;;;;16.95;9.82;;;12.30;81.10;;;;;;5116862;28;20119;-72
2021/04/18 08:23:38;;;;;;;14.65;8.80;;;12.30;79.80;;;;;;5117317;28;20036;-73
2021/04/18 08:26:04;;;;;;;15.85;8.57;;;12.00;79.20;;;;;;5116704;28;20059;-72
2021/04/18 08:28:30;;;;;;;17.40;9.68;;;12.30;80.50;;;;;;5117060;28;20475;-72
2021/04/18 08:31:07;;;;;;;14.15;9.07;;;12.10;79.40;;;;;;5116720;28;20043;-72
2021/04/18 08:33:39;;;;;;;16.85;9.95;;;12.60;79.60;;;;;;5117035;28;20452;-73
2021/04/18 08:36:45;;;;;;;11.85;8.13;;;12.90;78.20;;;;;;5116039;28;20056;-72
2021/04/18 08:39:13;;;;;;;12.52;8.20;;;13.20;74.50;;;;;;5095382;28;20054;-73
2021/04/18 08:41:40;;;;;;;12.63;8.20;;;13.30;74.90;;;;;;5116413;28;20122;-70
2021/04/18 08:44:21;;;;;;;15.70;9.38;;;13.70;74.00;;;;;;5116814;28;20521;-71
2021/04/18 08:46:49;;;;;;;15.77;8.65;;;13.70;72.00;;;;;;5116178;28;20459;-71
2021/04/18 08:49:39;;;;;;;15.27;8.68;;;13.90;72.60;;;;;;5116472;28;20110;-70
2021/04/18 08:52:12;;;;;;;10.95;7.20;;;13.90;71.30;;;;;;5116325;28;20043;-71
2021/04/18 08:54:41;;;;;;;15.05;8.07;;;13.90;71.20;;;;;;5116178;28;20043;-71
2021/04/18 08:57:28;;;;;;;13.45;7.28;;;14.00;71.00;;;;;;5116044;28;20035;-71
2021/04/18 08:59:59;;;;;;;10.15;7.30;;;13.90;69.70;;;;;;5116821;28;20051;-72
2021/04/18 09:02:26;;;;;;;14.43;7.80;;;13.80;70.80;;;;;;5116370;28;20047;-72
2021/04/18 09:04:54;;;;;;;14.25;8.88;;;14.30;72.30;;;;;;5115051;28;20045;-72
2021/04/18 09:07:24;;;;;;;10.95;7.50;;;14.30;72.00;;;;;;5115930;28;20032;-72
2021/04/18 09:09:52;;;;;;;15.00;6.55;;;13.90;70.40;;;;;;5116226;28;20503;-71
2021/04/18 09:12:18;;;;;;;13.52;6.95;;;13.70;71.40;;;;;;5115945;28;20084;-72
2021/04/18 09:14:45;;;;;;;10.20;6.32;;;13.80;70.00;;;;;;5115866;28;20084;-72
2021/04/18 09:17:13;;;;;;;12.10;6.65;;;13.60;70.40;;;;;;5115868;28;20043;-72
2021/04/18 09:19:45;;;;;;;11.60;6.18;;;13.60;70.90;;;;;;5116007;28;20048;-72
2021/04/18 09:22:14;;;;;;;13.77;6.95;;;13.30;70.20;;;;;;5116237;28;20080;-73
2021/04/18 09:24:52;;;;;;;8.13;6.03;;;13.30;70.80;;;;;;5115545;28;20035;-73
2021/04/18 09:27:21;;;;;;;7.15;5.55;;;13.10;69.00;;;;;;5116265;28;20035;-72
2021/04/18 09:29:53;;;;;;;10.10;5.53;;;13.30;70.80;;;;;;5115522;28;20035;-73
2021/04/18 09:32:21;;;;;;;9.70;5.20;;;13.20;67.90;;;;;;5115419;28;20044;-72
2021/04/18 09:34:47;;;;;;;8.55;5.15;;;13.20;67.30;;;;;;5115540;28;20058;-73
2021/04/18 09:37:19;;;;;;;6.97;5.18;;;13.20;67.60;;;;;;5115666;28;20479;-72
2021/04/18 09:39:54;;;;;;;9.20;5.90;;;13.30;68.10;;;;;;5115538;28;20058;-72
2021/04/18 09:42:21;;;;;;;11.60;5.38;;;13.30;68.40;;;;;;5115866;28;20113;-73
2021/04/18 09:44:49;;;;;;;11.68;5.75;;;13.30;68.10;;;;;;5115065;28;20035;-73
2021/04/18 09:47:24;;;;;;;8.32;4.97;;;13.50;66.40;;;;;;5114132;28;20478;-72
2021/04/18 09:49:55;;;;;;;11.75;5.47;;;13.60;66.20;;;;;;5115358;28;20062;-72
2021/04/18 09:52:38;;;;;;;7.25;4.95;;;13.30;66.70;;;;;;5115621;28;20406;-72
2021/04/18 09:55:08;;;;;;;6.68;4.78;;;13.30;66.10;;;;;;5115622;28;20494;-72
2021/04/18 09:57:56;;;;;;;7.78;4.80;;;13.20;65.20;;;;;;5115146;28;20089;-73
2021/04/18 10:00:23;;;;;;;9.77;4.18;;;13.50;66.20;;;;;;5115229;28;20061;-73
2021/04/18 10:03:08;;;;;;;7.47;4.70;;;13.50;66.20;;;;;;5114642;28;20078;-72
2021/04/18 10:05:37;;;;;;;8.13;4.57;;;13.50;65.40;;;;;;5114920;28;20032;-72
2021/04/18 10:08:20;;;;;;;11.00;5.63;;;13.40;66.30;;;;;;5096764;28;20039;-73
2021/04/18 10:10:49;;;;;;;9.02;4.90;;;13.70;66.10;;;;;;5114890;28;20051;-72
2021/04/18 10:13:16;;;;;;;9.80;5.20;;;13.80;66.10;;;;;;5114996;28;20036;-72
2021/04/18 10:15:52;;;;;;;5.15;3.95;;;13.90;66.40;;;;;;5112551;28;20042;-73
2021/04/18 10:18:20;;;;;;;8.88;5.15;;;14.00;62.90;;;;;;5115324;28;20051;-72
2021/04/18 10:20:46;;;;;;;9.25;4.90;;;14.10;63.70;;;;;;5113432;28;20027;-72
2021/04/18 10:23:11;;;;;;;9.05;4.63;;;14.20;63.60;;;;;;5114579;28;20043;-73
2021/04/18 10:25:39;;;;;;;6.82;3.97;;;14.20;63.40;;;;;;5114262;28;20445;-73
2021/04/18 10:28:06;;;;;;;6.95;4.30;;;14.30;63.00;;;;;;5114321;28;20042;-72
2021/04/18 10:30:32;;;;;;;7.32;4.25;;;14.30;62.20;;;;;;5114440;28;20047;-73
2021/04/18 10:32:58;;;;;;;8.10;4.88;;;14.50;62.80;;;;;;5115027;28;20039;-73
2021/04/18 10:35:25;;;;;;;11.32;4.45;;;14.50;62.10;;;;;;5114158;28;20092;-73
2021/04/18 10:37:51;;;;;;;9.20;4.53;;;14.60;61.90;;;;;;5114101;28;20062;-73
2021/04/18 10:40:19;;;;;;;10.40;4.88;;;14.50;63.70;;;;;;5114286;28;20031;-72
2021/04/18 10:42:45;;;;;;;7.65;5.07;;;14.20;63.10;;;;;;5114970;27;20163;-73
2021/04/18 10:45:13;;;;;;;9.38;4.95;;;14.30;64.30;;;;;;5112641;28;20028;-73
2021/04/18 10:47:39;;;;;;;9.05;5.38;;;14.00;62.90;;;;;;5114066;28;20487;-72
2021/04/18 10:50:05;;;;;;;6.00;4.68;;;14.00;63.90;;;;;;5114139;28;20039;-73
2021/04/18 10:52:32;;;;;;;11.45;5.07;;;14.20;64.60;;;;;;5112977;28;20051;-73
2021/04/18 10:54:58;;;;;;;8.82;4.80;;;14.20;63.10;;;;;;5114202;28;20042;-73
2021/04/18 10:57:25;;;;;;;8.25;5.03;;;14.30;63.90;;;;;;5113748;28;20046;-73
2021/04/18 10:59:51;;;;;;;10.10;4.80;;;14.20;63.20;;;;;;5113761;28;20044;-72
2021/04/18 11:02:17;;;;;;;9.15;5.22;;;14.30;63.20;;;;;;5112625;28;20031;-73
2021/04/18 11:04:43;;;;;;;9.82;4.30;;;14.40;64.40;;;;;;5113510;28;20039;-73
2021/04/18 11:07:09;;;;;;;8.60;5.30;;;14.50;62.10;;;;;;5113693;28;20035;-72
2021/04/18 11:09:38;;;;;;;7.30;4.43;;;14.60;61.50;;;;;;5113711;28;20043;-73
2021/04/18 11:12:14;;;;;;;9.80;5.20;;;14.70;61.10;;;;;;5114215;28;20388;-73
2021/04/18 11:14:39;;;;;;;8.73;4.50;;;14.70;62.30;;;;;;5113217;28;20107;-73
2021/04/18 11:17:05;;;;;;;8.23;4.32;;;15.00;61.60;;;;;;5113984;28;20122;-73
2021/04/18 11:19:31;;;;;;;12.15;5.18;;;14.70;61.00;;;;;;5113371;28;20058;-72
2021/04/18 11:21:56;;;;;;;6.97;5.13;;;14.90;62.00;;;;;;5113599;28;20483;-72
2021/04/18 11:24:22;;;;;;;11.30;5.10;;;15.10;62.20;;;;;;5113723;28;20067;-73
2021/04/18 11:26:47;;;;;;;8.93;5.18;;;15.00;61.30;;;;;;5115367;28;20032;-73
2021/04/18 11:29:13;;;;;;;7.38;4.95;;;14.90;62.20;;;;;;5117969;28;20110;-73
2021/04/18 11:31:39;;;;;;;7.55;4.63;;;15.00;61.40;;;;;;5118118;27;20031;-73
2021/04/18 11:34:05;;;;;;;9.15;4.57;;;14.70;61.50;;;;;;5117795;28;20035;-72
2021/04/18 11:36:30;;;;;;;6.20;4.50;;;14.70;61.80;;;;;;5117824;28;20043;-73
2021/04/18 11:38:56;;;;;;;8.73;4.30;;;14.90;61.80;;;;;;5117660;28;20035;-73
2021/04/18 11:41:22;;;;;;;9.45;4.78;;;15.10;60.20;;;;;;5117841;28;20071;-73
2021/04/18 11:43:47;;;;;;;8.95;4.78;;;15.20;59.80;;;;;;5117742;28;20376;-72
2021/04/18 11:46:13;;;;;;;7.35;5.10;;;15.30;60.30;;;;;;5117203;28;20058;-72
2021/04/18 11:48:39;;;;;;;8.35;4.97;;;15.30;60.10;;;;;;5117540;28;20035;-73
2021/04/18 11:51:05;;;;;;;8.35;5.22;;;15.30;60.40;;;;;;5117363;28;20043;-72
2021/04/18 11:53:31;;;;;;;9.82;4.13;;;15.30;60.60;;;;;;5118007;28;20040;-73
2021/04/18 11:55:57;;;;;;;9.13;4.10;;;15.30;60.40;;;;;;5117012;28;20043;-73
2021/04/18 11:58:23;;;;;;;6.20;3.92;;;15.20;59.60;;;;;;5117457;27;20046;-73
2021/04/18 12:00:48;;;;;;;7.90;4.07;;;15.30;59.60;;;;;;5117204;28;20036;-73
2021/04/18 12:03:17;;;;;;;8.20;4.15;;;15.20;57.40;;;;;;5117195;28;20072;-73
2021/04/18 12:05:43;;;;;;;8.32;4.63;;;15.20;57.40;;;;;;5115681;28;20048;-72
2021/04/18 12:08:16;;;;;;;7.38;4.03;;;15.20;58.20;;;;;;5117503;28;20111;-72
2021/04/18 12:10:42;;;;;;;5.82;4.45;;;15.10;59.60;;;;;;5116936;28;20050;-73
2021/04/18 12:13:08;;;;;;;12.57;5.57;;;15.20;60.20;;;;;;5117221;28;20107;-73
2021/04/18 12:15:33;;;;;;;8.05;4.68;;;15.30;60.00;;;;;;5116906;28;20066;-73
2021/04/18 12:17:59;;;;;;;5.68;4.35;;;15.20;59.50;;;;;;5116008;28;20571;-73
2021/04/18 12:20:25;;;;;;;6.50;4.20;;;15.20;58.00;;;;;;5117370;28;20096;-73
2021/04/18 12:22:50;;;;;;;9.57;4.90;;;15.30;59.00;;;;;;5117315;27;20043;-73
2021/04/18 12:25:16;;;;;;;8.00;4.82;;;15.40;58.50;;;;;;5116641;27;20039;-73
2021/04/18 12:27:42;;;;;;;8.27;4.13;;;15.40;58.90;;;;;;5116918;28;20038;-73
2021/04/18 12:30:09;;;;;;;7.78;5.10;;;15.20;58.40;;;;;;5116970;27;20484;-71
2021/04/18 12:32:35;;;;;;;7.07;4.03;;;15.10;58.50;;;;;;5117183;28;20113;-71
2021/04/18 12:35:01;;;;;;;7.57;4.43;;;15.20;58.90;;;;;;5116420;28;20131;-72
2021/04/18 12:37:27;;;;;;;11.48;6.43;;;15.20;59.20;;;;;;5116355;28;20487;-71
2021/04/18 12:39:52;;;;;;;8.27;5.00;;;15.20;59.60;;;;;;5115729;28;20031;-72
2021/04/18 12:42:18;;;;;;;9.73;5.18;;;15.10;59.50;;;;;;5116508;28;20039;-72
2021/04/18 12:44:44;;;;;;;11.25;5.40;;;15.00;59.40;;;;;;5116170;28;20040;-72